Time;durP1;ratioP1;P1;durP2;ratioP2;P2;SDS_P1;SDS_P2;PMS_P1;PMS_P2;Temp;Humidity;BMP_temperature;BMP_pressure;BME280_temperature;BME280_humidity;BME280_pressure;Samples;Min_cycle;Max_cycle;Signal;HPM_P1;HPM_P2
2024/01/05 00:01:39;;;;;;;2.42;2.08;;;10.10;83.40;;;;;;5035613;28;20500;-76
2024/01/05 00:04:04;;;;;;;4.13;2.30;;;10.10;83.40;;;;;;5035510;28;20053;-76
2024/01/05 00:06:30;;;;;;;4.25;2.42;;;10.10;83.40;;;;;;5019696;28;20370;-76
2024/01/05 00:08:56;;;;;;;3.95;2.30;;;10.10;83.40;;;;;;5052041;28;20112;-77
2024/01/05 00:11:22;;;;;;;2.75;2.13;;;10.10;83.40;;;;;;5035343;28;20465;-76
2024/01/05 00:13:48;;;;;;;4.22;2.10;;;10.10;83.40;;;;;;5051874;28;20036;-77
2024/01/05 00:16:18;;;;;;;3.22;2.25;;;10.20;83.40;;;;;;5035249;28;20362;-76
2024/01/05 00:18:45;;;;;;;2.92;2.53;;;10.20;83.50;;;;;;5052000;28;20052;-77
2024/01/05 00:21:22;;;;;;;4.18;2.08;;;10.10;83.40;;;;;;5035546;28;20029;-76
2024/01/05 00:23:49;;;;;;;3.50;2.10;;;10.10;83.50;;;;;;5035177;28;20029;-77
2024/01/05 00:26:15;;;;;;;3.67;2.10;;;10.20;83.50;;;;;;5035154;28;20021;-77
2024/01/05 00:28:41;;;;;;;3.03;1.92;;;10.10;83.40;;;;;;5052094;28;20053;-77
2024/01/05 00:31:11;;;;;;;4.03;2.25;;;10.20;83.50;;;;;;5019145;28;20032;-75
2024/01/05 00:33:37;;;;;;;2.17;1.90;;;10.10;83.40;;;;;;5052202;28;20037;-77
2024/01/05 00:36:04;;;;;;;3.30;2.40;;;10.10;83.40;;;;;;5051461;28;20474;-77
2024/01/05 00:38:30;;;;;;;2.90;2.03;;;10.20;83.50;;;;;;5051940;28;20021;-78
2024/01/05 00:40:56;;;;;;;3.97;2.40;;;10.10;83.40;;;;;;5035944;28;20079;-77
2024/01/05 00:43:22;;;;;;;3.25;2.10;;;10.20;83.50;;;;;;5035047;28;20048;-77
2024/01/05 00:45:47;;;;;;;3.47;2.30;;;10.20;83.50;;;;;;5018542;28;20033;-77
2024/01/05 00:48:13;;;;;;;3.72;2.08;;;10.20;83.40;;;;;;5051411;28;20072;-77
2024/01/05 00:50:39;;;;;;;2.83;1.98;;;10.20;83.50;;;;;;5035199;28;20552;-77
2024/01/05 00:53:04;;;;;;;3.30;2.08;;;10.20;83.50;;;;;;5051747;28;20052;-76
2024/01/05 00:55:30;;;;;;;2.72;2.03;;;10.20;83.50;;;;;;5034916;28;20037;-77
2024/01/05 00:57:56;;;;;;;3.97;2.25;;;10.20;83.50;;;;;;5051192;28;20033;-77
2024/01/05 01:00:22;;;;;;;2.83;1.98;;;10.20;84.10;;;;;;5034878;28;20037;-76
2024/01/05 01:02:47;;;;;;;3.03;2.17;;;10.20;83.50;;;;;;5051580;28;20037;-77
2024/01/05 01:05:13;;;;;;;3.80;2.20;;;10.20;83.40;;;;;;5035632;28;20061;-77
2024/01/05 01:07:40;;;;;;;2.60;1.80;;;10.20;83.40;;;;;;5034529;28;20386;-77
2024/01/05 01:10:06;;;;;;;4.15;2.20;;;10.20;83.40;;;;;;5051633;28;20076;-76
2024/01/05 01:12:32;;;;;;;2.97;2.10;;;10.20;83.40;;;;;;5056672;28;20029;-77
2024/01/05 01:14:57;;;;;;;3.22;2.20;;;10.20;83.50;;;;;;5039172;28;20029;-76
2024/01/05 01:17:23;;;;;;;3.78;2.38;;;10.20;83.40;;;;;;5054947;28;20075;-77
2024/01/05 01:19:49;;;;;;;2.60;2.05;;;10.20;83.40;;;;;;5038576;28;20033;-76
2024/01/05 01:22:15;;;;;;;2.67;2.03;;;10.20;83.40;;;;;;5038655;28;20036;-77
2024/01/05 01:24:41;;;;;;;3.10;2.40;;;10.20;83.50;;;;;;5022508;28;20120;-76
2024/01/05 01:27:06;;;;;;;3.67;2.40;;;10.20;83.40;;;;;;5055566;28;20032;-76
2024/01/05 01:29:32;;;;;;;3.50;2.20;;;10.20;83.40;;;;;;5038627;28;20037;-77
2024/01/05 01:31:58;;;;;;;3.08;2.10;;;10.20;83.40;;;;;;5038718;28;20036;-76
2024/01/05 01:34:23;;;;;;;3.75;2.20;;;10.20;83.40;;;;;;5021673;28;20056;-77
2024/01/05 01:36:51;;;;;;;3.85;2.20;;;10.20;83.40;;;;;;5038141;28;20068;-77
2024/01/05 01:39:17;;;;;;;2.33;2.00;;;10.20;83.40;;;;;;5038797;28;20060;-77
2024/01/05 01:41:42;;;;;;;3.70;2.20;;;10.20;83.40;;;;;;5038088;28;20029;-76
2024/01/05 01:44:08;;;;;;;3.08;2.25;;;10.20;83.40;;;;;;5038312;28;20350;-76
2024/01/05 01:46:36;;;;;;;3.55;2.08;;;10.20;83.40;;;;;;5054659;28;20453;-77
2024/01/05 01:49:05;;;;;;;4.55;2.55;;;10.20;83.40;;;;;;5038205;28;20096;-77
2024/01/05 01:51:35;;;;;;;3.67;2.10;;;10.20;83.40;;;;;;5021659;28;20036;-76
2024/01/05 01:54:03;;;;;;;3.75;2.20;;;10.20;83.40;;;;;;5021272;28;20040;-76
2024/01/05 01:56:31;;;;;;;3.85;2.42;;;10.20;83.40;;;;;;5038012;28;20025;-77
2024/01/05 01:58:56;;;;;;;3.08;2.15;;;10.20;83.50;;;;;;5038307;28;20040;-77
2024/01/05 02:01:22;;;;;;;2.97;1.98;;;10.20;83.40;;;;;;5021169;28;20033;-78
2024/01/05 02:03:48;;;;;;;4.43;2.30;;;10.20;83.40;;;;;;5037134;28;20091;-76
2024/01/05 02:06:14;;;;;;;2.90;2.20;;;10.20;83.40;;;;;;5055171;28;20033;-77
2024/01/05 02:08:40;;;;;;;4.90;2.30;;;10.20;83.40;;;;;;5020824;28;20048;-77
2024/01/05 02:11:06;;;;;;;5.25;2.75;;;10.20;83.50;;;;;;5055466;28;20025;-77
2024/01/05 02:13:33;;;;;;;2.53;1.85;;;10.20;83.40;;;;;;5037602;28;20076;-77
2024/01/05 02:15:59;;;;;;;2.65;2.03;;;10.20;83.50;;;;;;5037566;28;20033;-77
2024/01/05 02:18:25;;;;;;;2.97;2.13;;;10.20;83.40;;;;;;5036977;28;20499;-77
2024/01/05 02:20:50;;;;;;;2.72;2.10;;;10.20;83.40;;;;;;5037865;28;20033;-77
2024/01/05 02:23:26;;;;;;;2.97;2.20;;;10.10;83.40;;;;;;5052668;28;20083;-77
2024/01/05 02:25:55;;;;;;;2.65;2.00;;;10.10;83.50;;;;;;5037525;28;20040;-76
2024/01/05 02:28:21;;;;;;;2.78;2.10;;;10.20;83.50;;;;;;5037248;28;20033;-76
2024/01/05 02:30:47;;;;;;;2.50;1.90;;;10.20;83.50;;;;;;5037262;28;20116;-76
2024/01/05 02:33:13;;;;;;;3.47;2.40;;;10.10;83.40;;;;;;5020620;28;20138;-76
2024/01/05 02:38:21;;;;;;;2.30;1.98;;;10.10;83.40;;;;;;4950100;28;20102;-79
2024/01/05 02:40:47;;;;;;;3.08;1.90;;;10.10;83.40;;;;;;4956205;29;20476;-79
2024/01/05 02:43:13;;;;;;;2.25;1.90;;;10.10;83.40;;;;;;4924470;29;20042;-79
2024/01/05 02:45:39;;;;;;;2.65;1.83;;;10.10;83.40;;;;;;4940047;29;20031;-79
2024/01/05 02:48:05;;;;;;;2.70;2.15;;;10.10;83.50;;;;;;4956238;28;20042;-79
2024/01/05 02:50:31;;;;;;;3.15;1.70;;;10.10;83.40;;;;;;4955329;29;20039;-80
2024/01/05 02:52:57;;;;;;;2.22;1.50;;;10.10;83.40;;;;;;4939806;29;20047;-80
2024/01/05 02:55:22;;;;;;;2.13;1.60;;;10.10;83.40;;;;;;4924051;29;20111;-79
2024/01/05 02:57:48;;;;;;;1.85;1.65;;;10.20;83.50;;;;;;4956399;29;20090;-79
2024/01/05 03:00:14;;;;;;;2.10;1.88;;;10.20;83.50;;;;;;4939673;29;20034;-80
2024/01/05 03:02:40;;;;;;;2.10;1.50;;;10.20;83.50;;;;;;4940304;29;20061;-79
2024/01/05 03:05:06;;;;;;;3.13;1.90;;;10.10;83.40;;;;;;4923876;29;20393;-79
2024/01/05 03:07:32;;;;;;;3.00;1.83;;;10.20;83.40;;;;;;4939734;29;20039;-79
2024/01/05 03:09:58;;;;;;;3.13;1.75;;;10.20;83.40;;;;;;4940137;29;20058;-79
2024/01/05 03:12:24;;;;;;;2.15;1.70;;;10.20;83.40;;;;;;4939770;29;20031;-80
2024/01/05 03:14:50;;;;;;;2.22;1.75;;;10.20;83.40;;;;;;4940276;29;20448;-79
2024/01/05 03:17:16;;;;;;;3.90;1.80;;;10.20;83.50;;;;;;4924529;29;20133;-79
2024/01/05 03:19:41;;;;;;;4.10;2.00;;;10.20;83.50;;;;;;4923894;29;20399;-79
2024/01/05 03:22:07;;;;;;;2.03;1.63;;;10.20;83.40;;;;;;4939819;29;20122;-81
2024/01/05 03:24:34;;;;;;;2.25;1.50;;;10.20;83.40;;;;;;4923781;29;20041;-81
2024/01/05 03:27:00;;;;;;;2.40;1.70;;;10.20;83.50;;;;;;4939486;29;20126;-81
2024/01/05 03:29:26;;;;;;;1.40;1.30;;;10.20;83.50;;;;;;4940363;29;20415;-79
2024/01/05 03:31:51;;;;;;;2.97;1.80;;;10.20;83.40;;;;;;4939497;29;20403;-79
2024/01/05 03:34:17;;;;;;;2.05;1.60;;;10.20;83.40;;;;;;4924685;29;20040;-80
2024/01/05 03:36:43;;;;;;;2.40;1.58;;;10.20;83.40;;;;;;4956460;29;20479;-80
2024/01/05 03:39:09;;;;;;;2.80;1.90;;;10.20;83.40;;;;;;4956349;29;20473;-80
2024/01/05 03:41:35;;;;;;;3.42;1.73;;;10.20;83.40;;;;;;4940385;29;20046;-79
2024/01/05 03:44:01;;;;;;;2.25;1.77;;;10.30;83.50;;;;;;4956269;29;20038;-79
2024/01/05 03:46:27;;;;;;;2.03;1.60;;;10.20;83.40;;;;;;4940306;29;20035;-80
2024/01/05 03:48:53;;;;;;;2.45;1.70;;;10.20;83.40;;;;;;4940265;29;20468;-80
2024/01/05 03:51:19;;;;;;;2.80;1.70;;;10.20;83.40;;;;;;4939383;29;20045;-79
2024/01/05 03:53:44;;;;;;;2.55;1.70;;;10.20;83.40;;;;;;4939275;29;20495;-81
2024/01/05 03:56:10;;;;;;;2.15;1.60;;;10.20;83.40;;;;;;4939201;29;20055;-79
2024/01/05 03:58:36;;;;;;;2.83;1.70;;;10.30;83.40;;;;;;4939391;29;20546;-79
2024/01/05 04:01:02;;;;;;;2.40;1.60;;;10.30;83.40;;;;;;4939430;29;20053;-79
2024/01/05 04:03:28;;;;;;;3.25;1.60;;;10.30;83.40;;;;;;4939390;29;20036;-80
2024/01/05 04:05:54;;;;;;;1.80;1.60;;;10.30;83.40;;;;;;4956189;29;20503;-79
2024/01/05 04:08:21;;;;;;;2.75;1.55;;;10.30;83.40;;;;;;4939327;29;20039;-79
2024/01/05 04:10:47;;;;;;;2.63;1.80;;;10.30;83.40;;;;;;4939496;29;20503;-79
2024/01/05 04:13:13;;;;;;;3.22;1.42;;;10.30;83.40;;;;;;4938801;29;20067;-79
2024/01/05 04:15:39;;;;;;;2.05;1.50;;;10.30;83.40;;;;;;4939696;29;20087;-80
2024/01/05 04:18:06;;;;;;;2.10;1.38;;;10.30;83.40;;;;;;4939091;29;20100;-80
2024/01/05 04:20:32;;;;;;;2.65;1.48;;;10.30;83.40;;;;;;4954608;29;20102;-80
2024/01/05 04:23:01;;;;;;;2.47;1.50;;;10.30;83.40;;;;;;4939416;29;20507;-80
2024/01/05 04:25:26;;;;;;;2.03;1.83;;;10.30;83.30;;;;;;4954547;29;20035;-79
2024/01/05 04:27:53;;;;;;;3.05;1.45;;;10.40;83.40;;;;;;4955438;29;20038;-80
2024/01/05 04:30:20;;;;;;;2.10;1.60;;;10.30;83.30;;;;;;4922853;29;20090;-79
2024/01/05 04:32:47;;;;;;;3.00;1.75;;;10.30;83.40;;;;;;4938837;29;20462;-79
2024/01/05 04:35:13;;;;;;;2.42;1.52;;;10.40;83.40;;;;;;4938235;29;20035;-79
2024/01/05 04:37:39;;;;;;;2.00;1.52;;;10.30;83.30;;;;;;4935171;29;20056;-79
2024/01/05 04:40:06;;;;;;;2.03;1.40;;;10.30;83.30;;;;;;4951265;29;20376;-79
2024/01/05 04:42:32;;;;;;;2.97;1.70;;;10.40;83.40;;;;;;4919842;29;20040;-80
2024/01/05 04:44:58;;;;;;;1.80;1.30;;;10.40;83.30;;;;;;4919205;29;20118;-80
2024/01/05 04:47:24;;;;;;;1.98;1.60;;;10.30;83.20;;;;;;4939265;29;20489;-79
2024/01/05 04:49:50;;;;;;;2.60;1.50;;;10.40;83.20;;;;;;4938986;29;20504;-79
2024/01/05 04:52:16;;;;;;;1.40;1.30;;;10.40;83.20;;;;;;4954998;29;20051;-80
2024/01/05 04:54:42;;;;;;;2.60;1.42;;;10.40;83.30;;;;;;4923554;29;20039;-80
2024/01/05 04:57:08;;;;;;;1.63;1.50;;;10.40;83.30;;;;;;4923138;29;20511;-80
2024/01/05 04:59:34;;;;;;;1.75;1.30;;;10.40;83.90;;;;;;4922472;29;20040;-80
2024/01/05 05:02:00;;;;;;;2.88;1.48;;;10.40;83.30;;;;;;4954708;29;20485;-80
2024/01/05 05:04:26;;;;;;;1.85;1.45;;;10.40;83.30;;;;;;4954632;29;20134;-80
2024/01/05 05:06:52;;;;;;;1.73;1.50;;;10.40;83.30;;;;;;4922464;29;20119;-79
2024/01/05 05:09:17;;;;;;;4.30;1.70;;;10.40;83.30;;;;;;4938571;29;20090;-79
2024/01/05 05:11:43;;;;;;;1.52;1.30;;;10.40;83.30;;;;;;4922348;29;20040;-80
2024/01/05 05:14:09;;;;;;;3.22;1.23;;;10.50;83.30;;;;;;4954243;29;20039;-79
2024/01/05 05:16:35;;;;;;;2.75;1.50;;;10.40;83.20;;;;;;4922544;29;20028;-80
2024/01/05 05:19:01;;;;;;;2.45;1.70;;;10.40;83.30;;;;;;4939894;29;20047;-80
2024/01/05 05:21:28;;;;;;;1.95;1.40;;;10.40;83.30;;;;;;4939014;29;20032;-80
2024/01/05 05:23:54;;;;;;;1.88;1.38;;;10.40;83.30;;;;;;4954636;29;20043;-80
2024/01/05 05:26:19;;;;;;;2.03;1.42;;;10.40;83.30;;;;;;4938093;29;20370;-81
2024/01/05 05:28:45;;;;;;;1.55;1.30;;;10.50;83.30;;;;;;4953558;29;20039;-78
2024/01/05 05:31:11;;;;;;;1.30;1.20;;;10.50;83.30;;;;;;4922386;29;20036;-79
2024/01/05 05:33:37;;;;;;;2.25;1.15;;;10.40;83.20;;;;;;4922241;29;20043;-79
2024/01/05 05:36:03;;;;;;;1.90;1.40;;;10.40;83.20;;;;;;4955080;29;20195;-79
2024/01/05 05:38:29;;;;;;;1.35;1.10;;;10.50;83.20;;;;;;4925900;29;20043;-80
2024/01/05 05:40:55;;;;;;;1.98;1.30;;;10.50;83.90;;;;;;4924994;29;20043;-79
2024/01/05 05:43:20;;;;;;;1.42;1.23;;;10.50;83.30;;;;;;4941575;29;20042;-79
2024/01/05 05:45:46;;;;;;;3.25;1.48;;;10.40;83.20;;;;;;4926009;29;20122;-79
2024/01/05 05:48:12;;;;;;;2.15;1.30;;;10.50;83.20;;;;;;4941203;29;20579;-80
2024/01/05 05:50:38;;;;;;;1.45;1.35;;;10.50;83.20;;;;;;4942080;29;20031;-80
2024/01/05 05:53:04;;;;;;;3.15;1.60;;;10.50;83.20;;;;;;4925685;29;20166;-79
2024/01/05 05:55:30;;;;;;;1.67;1.25;;;10.50;83.30;;;;;;4925727;29;20063;-80
2024/01/05 05:57:57;;;;;;;1.95;1.48;;;10.50;83.30;;;;;;4940074;29;20031;-79
2024/01/05 06:00:25;;;;;;;1.48;1.30;;;10.50;83.30;;;;;;4941927;29;20042;-79
2024/01/05 06:02:50;;;;;;;2.30;1.33;;;10.50;83.30;;;;;;4926664;29;20495;-79
2024/01/05 06:05:16;;;;;;;1.30;1.20;;;10.50;83.20;;;;;;4940974;29;20035;-80
2024/01/05 06:07:42;;;;;;;1.75;1.25;;;10.50;83.20;;;;;;4940876;29;20031;-80
2024/01/05 06:10:08;;;;;;;1.90;1.30;;;10.50;83.20;;;;;;4956612;29;20480;-80
2024/01/05 06:12:34;;;;;;;1.50;1.10;;;10.50;83.20;;;;;;4924928;29;20035;-80
2024/01/05 06:15:00;;;;;;;1.92;1.27;;;10.50;83.30;;;;;;4940531;29;20067;-80
2024/01/05 06:17:26;;;;;;;1.95;1.30;;;10.50;83.30;;;;;;4940215;29;20042;-80
2024/01/05 06:19:51;;;;;;;1.77;1.30;;;10.50;83.30;;;;;;4940725;29;20114;-80
2024/01/05 06:22:17;;;;;;;2.70;1.50;;;10.50;83.20;;;;;;4940584;29;20090;-80
2024/01/05 06:24:46;;;;;;;2.05;1.38;;;10.50;83.20;;;;;;4940148;29;20038;-80
2024/01/05 06:27:12;;;;;;;1.80;1.30;;;10.50;83.30;;;;;;4940550;29;20384;-80
2024/01/05 06:29:38;;;;;;;1.58;1.30;;;10.50;83.30;;;;;;4940272;29;20035;-80
2024/01/05 06:32:04;;;;;;;1.67;1.40;;;10.50;83.30;;;;;;4939982;29;20039;-78
2024/01/05 06:34:30;;;;;;;2.20;1.48;;;10.50;83.30;;;;;;4924509;29;20404;-80
2024/01/05 06:36:56;;;;;;;2.00;1.27;;;10.50;83.20;;;;;;4924000;29;20055;-79
2024/01/05 06:39:22;;;;;;;1.08;1.08;;;10.50;83.20;;;;;;4955928;29;20037;-79
2024/01/05 06:41:48;;;;;;;2.08;1.30;;;10.50;83.20;;;;;;4956224;29;20118;-80
2024/01/05 06:44:13;;;;;;;2.20;1.20;;;10.50;83.20;;;;;;4956156;29;20408;-79
2024/01/05 06:46:39;;;;;;;2.35;1.40;;;10.50;83.20;;;;;;4924965;29;20032;-80
2024/01/05 06:49:05;;;;;;;1.95;1.30;;;10.50;83.20;;;;;;4939794;29;20573;-80
2024/01/05 06:51:40;;;;;;;1.45;1.25;;;10.50;83.20;;;;;;4924474;29;20468;-81
2024/01/05 06:54:06;;;;;;;;;;;10.50;83.20;;;;;;4924369;29;20090;-80
2024/01/05 06:56:32;;;;;;;1.40;1.30;;;10.50;83.10;;;;;;4939854;29;20339;-81
2024/01/05 06:59:03;;;;;;;1.08;1.08;;;10.50;83.00;;;;;;4956110;29;20036;-81
2024/01/05 07:01:28;;;;;;;1.73;1.10;;;10.50;83.10;;;;;;4940511;29;20035;-80
2024/01/05 07:03:54;;;;;;;1.40;1.00;;;10.50;83.10;;;;;;4941142;29;20038;-81
2024/01/05 07:06:20;;;;;;;1.73;1.27;;;10.50;83.20;;;;;;4957535;29;20039;-80
2024/01/05 07:08:46;;;;;;;1.60;1.38;;;10.50;83.10;;;;;;4924082;29;20122;-79
2024/01/05 07:11:25;;;;;;;1.77;1.30;;;10.50;83.20;;;;;;4926348;29;20035;-80
2024/01/05 07:13:51;;;;;;;2.85;1.30;;;10.50;83.20;;;;;;4956974;29;20098;-80
2024/01/05 07:16:18;;;;;;;1.67;1.33;;;10.50;83.20;;;;;;4940544;29;20488;-79
2024/01/05 07:18:44;;;;;;;1.52;1.17;;;10.50;83.20;;;;;;4957188;29;20118;-79
2024/01/05 07:21:10;;;;;;;2.28;1.20;;;10.50;83.30;;;;;;4924255;29;20042;-79
2024/01/05 07:23:36;;;;;;;1.67;1.13;;;10.50;83.20;;;;;;4956131;29;20151;-80
2024/01/05 07:26:02;;;;;;;1.30;1.20;;;10.50;83.30;;;;;;4956101;28;20389;-80
2024/01/05 07:28:28;;;;;;;1.33;1.23;;;10.50;83.30;;;;;;4939749;29;20122;-80
2024/01/05 07:30:54;;;;;;;1.88;1.73;;;10.50;83.30;;;;;;4923387;29;20135;-80
2024/01/05 07:33:19;;;;;;;2.30;1.35;;;10.50;83.20;;;;;;4955011;29;20047;-80
2024/01/05 07:35:45;;;;;;;1.38;1.20;;;10.50;83.20;;;;;;4939099;29;20131;-80
2024/01/05 07:38:11;;;;;;;1.48;1.05;;;10.50;83.20;;;;;;4939044;29;20051;-80
2024/01/05 07:40:37;;;;;;;2.72;1.42;;;10.50;83.20;;;;;;4939232;29;20499;-80
2024/01/05 07:43:03;;;;;;;1.75;1.20;;;10.50;83.20;;;;;;4939202;29;20069;-80
2024/01/05 07:45:29;;;;;;;1.38;1.10;;;10.50;83.20;;;;;;4923129;29;20059;-79
2024/01/05 07:47:57;;;;;;;1.10;1.00;;;10.50;83.20;;;;;;4955205;29;20032;-80
2024/01/05 07:50:24;;;;;;;2.80;1.30;;;10.50;83.80;;;;;;4955591;29;20500;-80
2024/01/05 07:52:51;;;;;;;1.88;1.30;;;10.50;83.80;;;;;;4939965;29;20027;-79
2024/01/05 07:55:16;;;;;;;1.33;1.10;;;10.50;83.20;;;;;;4939656;29;20043;-79
2024/01/05 07:57:43;;;;;;;1.40;1.10;;;10.50;83.20;;;;;;4923579;29;20035;-78
2024/01/05 08:00:10;;;;;;;1.25;1.10;;;10.50;83.20;;;;;;4954622;29;20082;-79
2024/01/05 08:02:36;;;;;;;1.30;1.08;;;10.50;83.10;;;;;;4954576;29;20062;-80
2024/01/05 08:05:02;;;;;;;1.25;1.15;;;10.50;83.20;;;;;;4956867;29;20031;-84
2024/01/05 08:07:28;;;;;;;2.53;1.30;;;10.50;83.20;;;;;;4939425;29;20028;-83
2024/01/05 08:09:54;;;;;;;2.28;1.20;;;10.50;83.20;;;;;;4939665;29;20086;-81
2024/01/05 08:12:20;;;;;;;1.92;1.20;;;10.50;83.20;;;;;;4923687;29;20039;-82
2024/01/05 08:14:46;;;;;;;1.27;1.00;;;10.50;83.20;;;;;;4955183;29;20047;-83
2024/01/05 08:17:12;;;;;;;1.48;1.17;;;10.50;83.20;;;;;;4923728;29;20040;-83
2024/01/05 08:19:38;;;;;;;1.48;1.30;;;10.50;83.20;;;;;;4939497;29;20043;-83
2024/01/05 08:22:03;;;;;;;1.30;1.20;;;10.50;83.20;;;;;;4954183;29;20035;-83
2024/01/05 08:24:29;;;;;;;1.13;1.10;;;10.50;83.10;;;;;;4955075;29;20038;-83
2024/01/05 08:26:55;;;;;;;1.60;0.98;;;10.50;83.10;;;;;;4940063;29;20192;-83
2024/01/05 08:29:22;;;;;;;1.00;1.00;;;10.50;83.10;;;;;;4923838;29;20182;-84
2024/01/05 08:31:51;;;;;;;1.00;1.00;;;10.50;83.10;;;;;;4939874;29;20126;-81
2024/01/05 08:34:17;;;;;;;1.10;1.00;;;10.50;83.20;;;;;;4938753;29;20035;-82
2024/01/05 08:36:43;;;;;;;1.10;1.00;;;10.50;83.20;;;;;;4939135;29;20051;-82
2024/01/05 08:39:10;;;;;;;1.00;1.00;;;10.50;83.20;;;;;;4938848;29;20039;-84
2024/01/05 08:41:36;;;;;;;1.10;1.00;;;10.50;83.20;;;;;;4955793;29;20035;-82
2024/01/05 08:44:02;;;;;;;0.90;0.90;;;10.50;83.30;;;;;;4955150;29;20046;-82
2024/01/05 08:46:32;;;;;;;1.00;1.00;;;10.50;83.30;;;;;;4938372;29;20027;-82
2024/01/05 08:48:57;;;;;;;0.90;0.90;;;10.50;83.40;;;;;;4954259;29;20438;-83
2024/01/05 08:51:23;;;;;;;1.10;1.00;;;10.50;83.30;;;;;;4938527;29;20036;-83
2024/01/05 08:53:49;;;;;;;1.00;0.90;;;10.50;83.30;;;;;;4955902;29;20031;-84
2024/01/05 08:56:15;;;;;;;1.00;0.95;;;10.40;83.90;;;;;;4921999;29;20041;-82
2024/01/05 08:58:41;;;;;;;1.00;1.00;;;10.40;83.20;;;;;;4938285;29;20028;-82
2024/01/05 09:01:06;;;;;;;0.82;0.82;;;10.50;83.30;;;;;;4938698;29;20423;-83
2024/01/05 09:03:32;;;;;;;1.02;0.90;;;10.40;83.20;;;;;;4955659;29;20502;-84
2024/01/05 09:05:58;;;;;;;1.13;1.02;;;10.40;83.20;;;;;;4923321;29;20035;-83
2024/01/05 09:08:24;;;;;;;0.90;0.90;;;10.50;83.30;;;;;;4938424;29;20419;-82
2024/01/05 09:10:50;;;;;;;1.10;1.00;;;10.40;83.30;;;;;;4938211;29;20039;-81
2024/01/05 09:13:16;;;;;;;0.90;0.90;;;10.40;83.20;;;;;;4938039;29;20097;-83
2024/01/05 09:15:42;;;;;;;1.10;1.00;;;10.50;83.30;;;;;;4922074;29;20600;-82
2024/01/05 09:18:08;;;;;;;1.08;1.00;;;10.40;83.20;;;;;;4954566;29;20500;-81
2024/01/05 09:20:34;;;;;;;0.90;0.90;;;10.40;83.20;;;;;;4922190;29;20477;-80
2024/01/05 09:23:00;;;;;;;1.08;0.98;;;10.50;83.30;;;;;;4953760;29;20086;-80
2024/01/05 09:25:26;;;;;;;1.17;1.08;;;10.40;83.30;;;;;;4938680;29;20040;-84
2024/01/05 09:27:52;;;;;;;0.95;0.95;;;10.40;83.20;;;;;;4954897;29;20531;-82
2024/01/05 09:30:18;;;;;;;1.27;1.05;;;10.40;83.20;;;;;;4955854;29;20073;-85
2024/01/05 09:32:44;;;;;;;0.90;0.90;;;10.40;83.20;;;;;;4925394;29;20035;-83
2024/01/05 09:35:11;;;;;;;1.00;1.00;;;10.40;83.20;;;;;;4957411;29;20044;-83
2024/01/05 09:37:36;;;;;;;1.00;1.00;;;10.40;83.20;;;;;;4957820;29;20481;-83
2024/01/05 09:40:03;;;;;;;1.00;1.00;;;10.40;83.20;;;;;;4941524;29;20028;-83
2024/01/05 09:42:29;;;;;;;0.90;0.90;;;10.40;83.20;;;;;;4941284;29;20051;-83
2024/01/05 09:44:55;;;;;;;0.90;0.90;;;10.40;83.20;;;;;;4956845;29;20067;-82
2024/01/05 09:47:21;;;;;;;1.13;0.90;;;10.50;83.20;;;;;;4940892;29;20109;-83
2024/01/05 09:49:51;;;;;;;1.05;1.00;;;10.40;83.20;;;;;;4957324;29;20144;-82
2024/01/05 09:52:19;;;;;;;0.90;0.90;;;10.40;83.20;;;;;;4941177;29;20059;-82
2024/01/05 09:54:47;;;;;;;0.90;0.90;;;10.40;83.20;;;;;;4941208;29;20039;-82
2024/01/05 09:57:20;;;;;;;1.10;1.00;;;10.40;83.20;;;;;;4942108;29;20042;-81
2024/01/05 09:59:47;;;;;;;1.00;0.90;;;10.40;83.20;;;;;;4941161;29;20062;-81
2024/01/05 10:02:21;;;;;;;0.90;0.90;;;10.40;83.20;;;;;;4956831;29;20055;-83
2024/01/05 10:04:47;;;;;;;1.00;1.00;;;10.40;83.20;;;;;;4941056;29;20027;-82
2024/01/05 10:07:13;;;;;;;0.82;0.82;;;10.40;83.20;;;;;;4924787;29;20076;-80
2024/01/05 10:09:49;;;;;;;0.90;0.90;;;10.40;83.20;;;;;;4925136;29;20082;-83
2024/01/05 10:12:15;;;;;;;1.00;1.00;;;10.40;83.30;;;;;;4956777;29;20063;-83
2024/01/05 10:14:41;;;;;;;0.90;0.90;;;10.40;83.30;;;;;;4956099;29;20070;-81
2024/01/05 10:17:08;;;;;;;1.10;1.10;;;10.40;83.30;;;;;;4956357;29;20027;-81
2024/01/05 10:19:35;;;;;;;0.80;0.80;;;10.40;83.30;;;;;;4956430;29;20027;-81
2024/01/05 10:22:11;;;;;;;0.88;0.88;;;10.40;83.30;;;;;;4956308;29;20030;-81
2024/01/05 10:24:37;;;;;;;0.88;0.88;;;10.40;83.30;;;;;;4924895;29;20127;-81
2024/01/05 10:27:09;;;;;;;0.88;0.88;;;10.40;83.30;;;;;;4925584;29;20440;-81
2024/01/05 10:29:37;;;;;;;0.80;0.80;;;10.40;83.40;;;;;;4941255;29;20023;-83
2024/01/05 10:32:19;;;;;;;0.77;0.77;;;10.40;83.40;;;;;;4956776;29;20104;-82
2024/01/05 10:34:48;;;;;;;0.88;0.88;;;10.40;83.40;;;;;;4958258;29;20031;-81
2024/01/05 10:37:15;;;;;;;0.80;0.80;;;10.40;83.40;;;;;;4957222;29;20048;-82
2024/01/05 10:39:51;;;;;;;0.93;0.90;;;10.40;83.40;;;;;;4941708;29;20027;-82
2024/01/05 10:42:20;;;;;;;0.90;0.90;;;10.30;83.40;;;;;;4957354;29;20028;-81
2024/01/05 10:44:49;;;;;;;0.80;0.80;;;10.30;83.30;;;;;;4956618;28;20043;-84
2024/01/05 10:47:15;;;;;;;0.90;0.90;;;10.30;83.30;;;;;;4941504;29;20031;-81
2024/01/05 10:49:50;;;;;;;1.00;1.00;;;10.40;83.40;;;;;;4956761;29;20145;-82
2024/01/05 10:52:20;;;;;;;1.27;1.20;;;10.40;83.40;;;;;;4940879;29;20039;-82
2024/01/05 10:54:52;;;;;;;1.10;1.10;;;10.30;83.40;;;;;;4957676;29;20070;-82
2024/01/05 10:57:19;;;;;;;0.90;0.90;;;10.30;83.40;;;;;;4940312;29;20035;-83
2024/01/05 10:59:48;;;;;;;0.80;0.80;;;10.30;83.30;;;;;;4955915;29;20480;-83
2024/01/05 11:03:01;;;;;;;0.88;0.82;;;10.30;83.40;;;;;;4939862;29;20023;-83
2024/01/05 11:05:51;;;;;;;1.10;1.10;;;10.30;83.40;;;;;;4927448;29;20090;-83
2024/01/05 11:08:37;;;;;;;0.88;0.88;;;10.30;83.20;;;;;;4957172;29;20110;-83
2024/01/05 11:11:10;;;;;;;0.90;0.90;;;10.30;83.40;;;;;;4956073;29;20115;-84
2024/01/05 11:13:39;;;;;;;1.10;1.00;;;10.30;83.30;;;;;;4957236;29;20044;-84
2024/01/05 11:16:23;;;;;;;0.90;0.90;;;10.30;83.40;;;;;;4956071;29;20464;-83
2024/01/05 11:19:19;;;;;;;0.90;0.90;;;10.30;83.40;;;;;;4956365;29;20448;-83
2024/01/05 11:21:59;;;;;;;0.90;0.90;;;10.30;83.50;;;;;;4955903;29;20036;-82
2024/01/05 11:24:26;;;;;;;1.10;1.10;;;10.30;83.40;;;;;;4955284;29;20046;-82
2024/01/05 11:26:54;;;;;;;0.90;0.90;;;10.30;83.40;;;;;;4956274;29;20117;-83
2024/01/05 11:29:45;;;;;;;1.00;1.00;;;10.30;83.50;;;;;;4938988;29;20027;-83
2024/01/05 11:32:45;;;;;;;1.10;1.10;;;10.20;83.50;;;;;;4954977;29;20031;-81
2024/01/05 11:35:16;;;;;;;0.98;0.98;;;10.30;83.50;;;;;;4954954;29;20047;-82
2024/01/05 11:37:47;;;;;;;1.00;1.00;;;10.20;83.40;;;;;;4954812;29;20051;-82
2024/01/05 11:40:32;;;;;;;1.00;1.00;;;10.20;83.40;;;;;;4956279;29;20074;-84
2024/01/05 11:42:59;;;;;;;1.20;1.10;;;10.20;83.50;;;;;;4938840;29;20093;-83
2024/01/05 11:45:43;;;;;;;1.23;1.20;;;10.20;83.40;;;;;;4939257;29;20035;-82
2024/01/05 11:48:09;;;;;;;1.10;1.10;;;10.20;83.50;;;;;;4955741;29;20042;-83
2024/01/05 11:50:37;;;;;;;1.02;1.02;;;10.20;83.40;;;;;;4939097;29;20290;-82
2024/01/05 11:53:13;;;;;;;1.10;1.10;;;10.20;83.40;;;;;;4955291;29;20031;-81
2024/01/05 11:55:46;;;;;;;1.20;1.10;;;10.20;83.50;;;;;;4956159;28;20020;-83
2024/01/05 11:58:17;;;;;;;1.30;1.20;;;10.20;83.50;;;;;;4955811;29;20540;-83
2024/01/05 12:00:44;;;;;;;1.20;1.10;;;10.30;83.50;;;;;;4955225;29;20027;-84
2024/01/05 12:03:10;;;;;;;1.30;1.20;;;10.20;83.40;;;;;;4955456;29;20031;-84
2024/01/05 12:05:38;;;;;;;1.17;1.15;;;10.20;83.40;;;;;;4938696;29;20400;-83
2024/01/05 12:08:05;;;;;;;1.30;1.20;;;10.20;83.40;;;;;;4954410;29;20436;-83
2024/01/05 12:10:31;;;;;;;1.20;1.13;;;10.20;83.40;;;;;;4940020;29;20030;-82
2024/01/05 12:12:57;;;;;;;1.20;1.10;;;10.20;83.40;;;;;;4939463;29;20062;-81
2024/01/05 12:15:24;;;;;;;1.00;1.00;;;10.20;83.40;;;;;;4939279;29;20047;-83
2024/01/05 12:18:00;;;;;;;1.00;1.00;;;10.20;83.40;;;;;;4956391;29;20030;-80
2024/01/05 12:20:26;;;;;;;1.02;1.02;;;10.20;83.50;;;;;;4939017;29;20031;-80
2024/01/05 12:22:52;;;;;;;1.20;1.10;;;10.20;83.40;;;;;;4938362;29;20023;-79
2024/01/05 12:25:20;;;;;;;1.20;1.10;;;10.20;83.40;;;;;;4954541;29;20046;-81
2024/01/05 12:27:49;;;;;;;1.13;1.13;;;10.20;83.40;;;;;;4938457;29;20028;-81
2024/01/05 12:30:15;;;;;;;1.13;1.13;;;10.20;83.40;;;;;;4923809;29;20476;-81
2024/01/05 12:32:44;;;;;;;1.20;1.10;;;10.20;83.40;;;;;;4940145;29;20035;-81
2024/01/05 12:35:10;;;;;;;1.30;1.20;;;10.30;83.50;;;;;;4940170;29;20132;-81
2024/01/05 12:37:37;;;;;;;2.03;1.83;;;10.20;83.40;;;;;;4939571;29;20047;-81
2024/01/05 12:40:10;;;;;;;1.00;1.00;;;10.20;83.40;;;;;;4939853;29;20027;-80
2024/01/05 12:42:40;;;;;;;1.30;1.20;;;10.20;83.50;;;;;;4924059;29;20439;-80
2024/01/05 12:45:06;;;;;;;1.30;1.20;;;10.30;83.40;;;;;;4939434;29;20053;-81
2024/01/05 12:47:38;;;;;;;1.48;1.20;;;10.30;83.50;;;;;;4954626;29;20031;-80
2024/01/05 12:50:04;;;;;;;1.08;1.08;;;10.30;83.50;;;;;;4938483;29;20078;-80
2024/01/05 12:52:38;;;;;;;1.30;1.20;;;10.30;83.50;;;;;;4938488;29;20044;-81